Time;durP1;ratioP1;P1;durP2;ratioP2;P2;SDS_P1;SDS_P2;PMS_P1;PMS_P2;Temp;Humidity;BMP_temperature;BMP_pressure;BME280_temperature;BME280_humidity;BME280_pressure;Samples;Min_cycle;Max_cycle;Signal;HPM_P1;HPM_P2
2024/03/12 00:01:54;;;;;;;;;;;15.50;74.60;;;;;;4034409;29;19935;-46
2024/03/12 00:04:35;;;;;;;;;;;15.40;74.60;;;;;;4028013;29;19990;-48
2024/03/12 00:07:21;;;;;;;;;;;15.40;74.70;;;;;;4012993;29;19946;-47
2024/03/12 00:10:05;;;;;;;;;;;15.40;74.90;;;;;;4030589;29;19939;-52
2024/03/12 00:12:47;;;;;;;;;;;15.40;74.90;;;;;;4030730;29;20356;-48
2024/03/12 00:15:28;;;;;;;;;;;15.40;75.10;;;;;;4031293;29;19930;-48
2024/03/12 00:18:10;;;;;;;;;;;15.40;75.20;;;;;;4027191;29;20408;-47
2024/03/12 00:20:52;;;;;;;;;;;15.30;75.30;;;;;;4030085;29;19935;-48
2024/03/12 00:23:33;;;;;;;;;;;15.40;75.40;;;;;;4031192;29;19931;-47
2024/03/12 00:26:17;;;;;;;;;;;15.40;75.50;;;;;;4030291;29;19930;-48
2024/03/12 00:28:58;;;;;;;;;;;15.30;75.50;;;;;;4031007;29;19935;-49
2024/03/12 00:31:39;;;;;;;;;;;15.30;75.60;;;;;;4030179;29;19938;-48
2024/03/12 00:34:20;;;;;;;;;;;15.30;76.50;;;;;;4029866;29;19931;-48
2024/03/12 00:37:01;;;;;;;;;;;15.30;75.70;;;;;;4030795;29;20325;-48
2024/03/12 00:39:42;;;;;;;;;;;15.30;75.80;;;;;;4030639;29;19933;-48
2024/03/12 00:42:24;;;;;;;;;;;15.30;75.90;;;;;;4045395;29;19930;-51
2024/03/12 00:45:07;;;;;;;;;;;15.30;75.90;;;;;;4030091;29;20068;-48
2024/03/12 00:47:47;;;;;;;;;;;15.30;76.00;;;;;;4014544;29;20779;-48
2024/03/12 00:50:28;;;;;;;;;;;15.30;76.10;;;;;;4014772;29;19931;-50
2024/03/12 00:53:11;;;;;;;;;;;15.30;76.20;;;;;;4015178;29;20298;-48
2024/03/12 00:55:53;;;;;;;;;;;15.30;76.30;;;;;;4014888;29;19931;-48
2024/03/12 00:58:39;;;;;;;;;;;15.30;76.40;;;;;;4015728;29;20393;-45
2024/03/12 01:01:20;;;;;;;;;;;15.30;76.50;;;;;;4014376;29;20388;-45
2024/03/12 01:04:03;;;;;;;;;;;15.30;77.40;;;;;;4013428;29;19935;-45
2024/03/12 01:06:44;;;;;;;;;;;15.30;76.50;;;;;;4026869;29;19935;-47
2024/03/12 01:09:27;;;;;;;;;;;15.20;76.50;;;;;;4030138;29;19931;-45
2024/03/12 01:12:09;;;;;;;;;;;15.20;76.50;;;;;;4014828;29;19930;-47
2024/03/12 01:14:51;;;;;;;;;;;15.20;76.60;;;;;;4039950;29;20427;-46
2024/03/12 01:17:32;;;;;;;;;;;15.20;76.70;;;;;;4029678;29;20388;-46
2024/03/12 01:20:16;;;;;;;;;;;15.20;76.70;;;;;;4042558;29;20308;-46
2024/03/12 01:22:57;;;;;;;;;;;15.20;76.80;;;;;;4045248;29;19939;-47
2024/03/12 01:25:39;;;;;;;;;;;15.20;77.70;;;;;;4045178;29;19982;-49
2024/03/12 01:28:20;;;;;;;;;;;15.20;76.80;;;;;;4028923;29;20372;-47
2024/03/12 01:31:03;;;;;;;;;;;15.20;76.90;;;;;;4021857;29;19934;-47
2024/03/12 01:33:44;;;;;;;;;;;15.20;77.80;;;;;;4044835;29;19930;-48
2024/03/12 01:36:34;;;;;;;;;;;15.20;77.00;;;;;;4045063;29;20047;-46
2024/03/12 01:39:16;;;;;;;;;;;15.20;77.00;;;;;;4035683;29;19934;-45
2024/03/12 01:41:57;;;;;;;;;;;15.20;77.00;;;;;;4025772;29;19935;-47
2024/03/12 01:44:39;;;;;;;;;;;15.20;77.10;;;;;;4029606;29;20393;-45
2024/03/12 01:47:24;;;;;;;;;;;15.20;77.10;;;;;;4029737;29;19930;-46
2024/03/12 01:50:07;;;;;;;;;;;15.20;77.10;;;;;;4044031;29;19973;-46
2024/03/12 01:52:48;;;;;;;;;;;15.10;77.10;;;;;;4043821;29;19930;-45
2024/03/12 01:55:29;;;;;;;;;;;15.10;77.10;;;;;;4045150;29;20083;-45
2024/03/12 01:58:09;;;;;;;;;;;15.10;77.20;;;;;;4035330;29;20022;-47
2024/03/12 02:00:51;;;;;;;;;;;15.10;77.30;;;;;;4007173;29;19946;-45
2024/03/12 02:03:34;;;;;;;;;;;15.10;77.30;;;;;;4029693;29;20011;-45
2024/03/12 02:06:15;;;;;;;;;;;15.10;77.40;;;;;;4035583;29;20063;-49
2024/03/12 02:08:56;;;;;;;;;;;15.10;77.40;;;;;;4043117;29;20002;-45
2024/03/12 02:11:40;;;;;;;;;;;15.10;77.50;;;;;;4033211;29;20241;-45
2024/03/12 02:14:21;;;;;;;;;;;15.10;77.50;;;;;;4030204;29;19951;-45
2024/03/12 02:17:05;;;;;;;;;;;15.10;77.50;;;;;;4028470;29;19946;-45
2024/03/12 02:19:47;;;;;;;;;;;15.10;77.50;;;;;;4029103;29;19952;-46
2024/03/12 02:22:28;;;;;;;;;;;15.10;77.60;;;;;;4031572;29;19935;-45
2024/03/12 02:25:11;;;;;;;;;;;15.10;77.60;;;;;;4028740;29;19992;-48
2024/03/12 02:27:51;;;;;;;;;;;15.10;77.60;;;;;;4027366;29;19930;-49
2024/03/12 02:30:33;;;;;;;;;;;15.10;77.70;;;;;;4014328;29;19975;-45
2024/03/12 02:33:14;;;;;;;;;;;15.10;77.70;;;;;;4021317;29;19931;-46
2024/03/12 02:35:54;;;;;;;;;;;15.10;77.80;;;;;;4028729;29;20111;-45
2024/03/12 02:38:38;;;;;;;;;;;15.00;77.70;;;;;;4023259;29;19931;-46
2024/03/12 02:41:21;;;;;;;;;;;15.10;77.90;;;;;;4029327;29;19930;-45
2024/03/12 02:44:02;;;;;;;;;;;15.00;77.80;;;;;;4012681;29;20060;-46
2024/03/12 02:46:43;;;;;;;;;;;15.00;77.80;;;;;;4031156;29;19974;-45
2024/03/12 02:49:24;;;;;;;;;;;15.00;77.80;;;;;;4028932;29;19934;-46
2024/03/12 02:52:05;;;;;;;;;;;15.00;78.70;;;;;;4028768;29;20030;-46
2024/03/12 02:54:46;;;;;;;;;;;15.00;77.90;;;;;;4028457;29;19934;-49
2024/03/12 02:57:28;;;;;;;;;;;15.00;78.00;;;;;;4013867;29;19974;-47
2024/03/12 03:00:11;;;;;;;;;;;15.00;78.00;;;;;;4043177;29;19930;-48
2024/03/12 03:02:54;;;;;;;;;;;15.00;78.00;;;;;;4042434;29;19934;-46
2024/03/12 03:05:35;;;;;;;;;;;15.00;78.10;;;;;;4043518;29;19934;-46
2024/03/12 03:08:16;;;;;;;;;;;15.00;78.10;;;;;;4034985;29;19934;-48
2024/03/12 03:10:56;;;;;;;;;;;15.00;78.10;;;;;;4043313;29;19930;-47
2024/03/12 03:13:38;;;;;;;;;;;15.00;78.20;;;;;;4043213;29;19935;-48
2024/03/12 03:16:20;;;;;;;;;;;15.00;79.00;;;;;;4027791;29;19931;-49
2024/03/12 03:19:00;;;;;;;;;;;15.00;78.20;;;;;;4042477;29;19946;-50
2024/03/12 03:21:41;;;;;;;;;;;15.00;78.20;;;;;;4043276;29;19934;-46
2024/03/12 03:24:22;;;;;;;;;;;15.00;79.20;;;;;;4043179;29;20079;-47
2024/03/12 03:27:03;;;;;;;;;;;15.00;78.30;;;;;;4027974;29;19931;-47
2024/03/12 03:29:45;;;;;;;;;;;15.00;78.40;;;;;;4041681;29;19935;-45
2024/03/12 03:32:26;;;;;;;;;;;15.00;78.40;;;;;;4027413;29;20380;-48
2024/03/12 03:35:08;;;;;;;;;;;14.90;78.40;;;;;;4026924;29;19935;-48
2024/03/12 03:37:49;;;;;;;;;;;14.90;78.40;;;;;;4030836;29;20383;-47
2024/03/12 03:40:29;;;;;;;;;;;14.90;78.50;;;;;;4042891;29;19930;-48
2024/03/12 03:43:10;;;;;;;;;;;14.90;78.50;;;;;;4042384;29;20067;-48
2024/03/12 03:45:52;;;;;;;;;;;14.90;78.50;;;;;;4042803;29;19942;-47
2024/03/12 03:48:34;;;;;;;;;;;14.90;78.60;;;;;;4039589;29;19950;-47
2024/03/12 03:51:16;;;;;;;;;;;14.90;78.70;;;;;;4042782;29;19930;-48
2024/03/12 03:54:00;;;;;;;;;;;14.90;78.70;;;;;;4041837;29;19934;-47
2024/03/12 03:56:42;;;;;;;;;;;14.90;78.70;;;;;;4043179;29;19934;-47
2024/03/12 03:59:23;;;;;;;;;;;14.90;78.70;;;;;;4042880;29;19979;-51
2024/03/12 04:02:05;;;;;;;;;;;14.90;78.60;;;;;;4027686;29;20099;-48
2024/03/12 04:04:46;;;;;;;;;;;14.90;78.50;;;;;;4027808;29;20067;-52
2024/03/12 04:07:28;;;;;;;;;;;15.00;78.70;;;;;;4041292;29;19935;-48
2024/03/12 04:10:11;;;;;;;;;;;15.00;78.60;;;;;;4029164;29;20394;-47
2024/03/12 04:12:55;;;;;;;;;;;15.10;78.50;;;;;;4027479;29;19995;-48
2024/03/12 04:15:36;;;;;;;;;;;15.10;78.30;;;;;;4027668;29;19931;-49
2024/03/12 04:18:18;;;;;;;;;;;15.20;79.10;;;;;;4027357;29;19935;-47
2024/03/12 04:20:59;;;;;;;;;;;15.10;78.00;;;;;;4015456;29;19935;-46
2024/03/12 04:23:42;;;;;;;;;;;15.20;78.00;;;;;;4026962;29;20305;-47
2024/03/12 04:26:23;;;;;;;;;;;15.10;78.00;;;;;;4019743;29;19934;-48
2024/03/12 04:29:04;;;;;;;;;;;15.20;78.40;;;;;;4027513;29;20067;-46
2024/03/12 04:31:44;;;;;;;;;;;15.20;78.30;;;;;;4039017;29;19931;-45
2024/03/12 04:34:26;;;;;;;;;;;15.30;79.00;;;;;;4042145;29;20018;-44
2024/03/12 04:37:08;;;;;;;;;;;15.30;78.00;;;;;;4027793;29;19931;-46
2024/03/12 04:39:49;;;;;;;;;;;15.40;77.80;;;;;;4019978;29;20010;-46
2024/03/12 04:42:30;;;;;;;;;;;15.40;77.70;;;;;;4058303;29;19930;-46
2024/03/12 04:45:11;;;;;;;;;;;15.50;77.70;;;;;;4042793;29;19934;-48
2024/03/12 04:47:51;;;;;;;;;;;15.50;77.50;;;;;;4054753;29;19931;-45
2024/03/12 04:50:33;;;;;;;;;;;15.50;77.40;;;;;;4042435;29;19969;-45
2024/03/12 04:53:15;;;;;;;;;;;15.50;77.40;;;;;;4042723;29;19967;-46
2024/03/12 04:55:57;;;;;;;;;;;15.50;77.40;;;;;;4029890;29;19934;-48
2024/03/12 04:58:38;;;;;;;;;;;15.60;78.10;;;;;;4029580;29;19934;-46
2024/03/12 05:01:19;;;;;;;;;;;15.70;76.70;;;;;;4045572;29;19934;-47
2024/03/12 05:04:00;;;;;;;;;;;15.80;76.50;;;;;;4045094;29;20399;-47
2024/03/12 05:06:45;;;;;;;;;;;15.80;76.30;;;;;;4045609;29;20299;-47
2024/03/12 05:09:26;;;;;;;;;;;15.90;76.30;;;;;;4060587;29;20375;-45
2024/03/12 05:12:07;;;;;;;;;;;15.90;76.30;;;;;;4030028;29;19935;-46
2024/03/12 05:14:48;;;;;;;;;;;15.90;76.30;;;;;;4020074;29;19959;-45
2024/03/12 05:17:29;;;;;;;;;;;15.90;76.20;;;;;;4009424;29;20764;-44
2024/03/12 05:20:10;;;;;;;;;;;16.00;76.00;;;;;;4030233;29;19931;-45
2024/03/12 05:22:53;;;;;;;;;;;16.00;75.70;;;;;;4029229;29;19980;-45
2024/03/12 05:25:39;;;;;;;;;;;16.10;75.50;;;;;;4018186;29;19930;-48
2024/03/12 05:28:21;;;;;;;;;;;16.10;75.50;;;;;;4015047;29;19935;-46
2024/03/12 05:31:01;;;;;;;;;;;16.10;75.50;;;;;;4014500;29;20015;-45
2024/03/12 05:33:42;;;;;;;;;;;16.10;75.60;;;;;;4047240;29;20504;-46
2024/03/12 05:36:24;;;;;;;;;;;16.00;75.60;;;;;;4060313;29;19938;-48
2024/03/12 05:39:15;;;;;;;;;;;16.00;75.70;;;;;;4045365;29;19934;-45
2024/03/12 05:50:48;;;;;;;;;;;15.80;77.30;;;;;;4059084;29;19989;-48
2024/03/12 05:53:29;;;;;;;;;;;15.80;76.80;;;;;;4028715;29;19934;-47
2024/03/12 05:56:11;;;;;;;;;;;15.80;76.70;;;;;;4013558;29;20044;-49
2024/03/12 05:58:54;;;;;;;;;;;15.90;76.50;;;;;;4014150;29;19931;-49
2024/03/12 06:01:34;;;;;;;;;;;15.90;76.30;;;;;;4029711;29;20044;-47
2024/03/12 06:04:16;;;;;;;;;;;16.00;77.00;;;;;;4057779;29;19998;-47
2024/03/12 06:06:56;;;;;;;;;;;16.00;76.10;;;;;;4027163;29;19931;-46
2024/03/12 06:09:37;;;;;;;;;;;16.00;75.90;;;;;;4017683;29;19935;-45
2024/03/12 06:12:19;;;;;;;;;;;16.10;75.90;;;;;;4029361;29;19935;-47
2024/03/12 06:15:00;;;;;;;;;;;16.10;75.70;;;;;;4013762;29;19934;-46
2024/03/12 06:17:40;;;;;;;;;;;16.10;75.70;;;;;;4041281;29;20063;-46
2024/03/12 06:20:21;;;;;;;;;;;16.10;75.80;;;;;;4044083;29;20062;-45
2024/03/12 06:23:03;;;;;;;;;;;16.10;75.70;;;;;;4029108;29;19935;-43
2024/03/12 06:25:44;;;;;;;;;;;16.10;75.70;;;;;;4029119;29;19931;-46
2024/03/12 06:28:30;;;;;;;;;;;16.10;75.60;;;;;;4035178;29;20322;-45
2024/03/12 06:31:11;;;;;;;;;;;16.10;75.60;;;;;;4038186;29;19931;-46
2024/03/12 06:33:52;;;;;;;;;;;16.10;75.60;;;;;;4013481;29;19935;-44
2024/03/12 06:36:34;;;;;;;;;;;16.20;75.60;;;;;;4013488;29;19985;-46
2024/03/12 06:39:17;;;;;;;;;;;16.20;75.40;;;;;;4013453;29;19935;-43
2024/03/12 06:41:59;;;;;;;;;;;16.20;75.20;;;;;;4027799;29;19946;-47
2024/03/12 06:44:43;;;;;;;;;;;16.20;76.30;;;;;;4027800;29;20441;-47
2024/03/12 06:47:25;;;;;;;;;;;16.20;75.80;;;;;;4028204;29;19930;-45
2024/03/12 06:50:08;;;;;;;;;;;16.10;75.80;;;;;;4026360;29;20293;-44
2024/03/12 06:52:50;;;;;;;;;;;16.10;75.90;;;;;;4042401;29;19997;-44
2024/03/12 06:55:32;;;;;;;;;;;16.10;76.00;;;;;;4039910;29;19934;-47
2024/03/12 06:58:18;;;;;;;;;;;16.00;76.00;;;;;;4021691;29;20444;-47
2024/03/12 07:01:01;;;;;;;;;;;16.00;76.20;;;;;;4015240;29;20412;-45
2024/03/12 07:03:42;;;;;;;;;;;16.00;76.50;;;;;;4028457;29;20329;-50
2024/03/12 07:06:24;;;;;;;;;;;16.00;76.50;;;;;;4042111;29;19963;-46
2024/03/12 07:09:09;;;;;;;;;;;15.90;76.40;;;;;;4041677;29;19946;-48
2024/03/12 07:11:54;;;;;;;;;;;15.90;76.30;;;;;;4042289;29;19929;-44
2024/03/12 07:14:41;;;;;;;;;;;15.90;76.30;;;;;;4043371;29;20025;-43
2024/03/12 07:17:23;;;;;;;;;;;16.00;76.30;;;;;;4043156;29;20060;-43
2024/03/12 07:20:11;;;;;;;;;;;16.00;75.80;;;;;;4027503;29;19947;-45
2024/03/12 07:22:52;;;;;;;;;;;16.10;75.00;;;;;;4017664;29;19992;-47
2024/03/12 07:25:33;;;;;;;;;;;16.10;75.00;;;;;;4026514;29;19934;-46
2024/03/12 07:28:14;;;;;;;;;;;16.10;74.80;;;;;;4032002;29;19934;-46
2024/03/12 07:30:55;;;;;;;;;;;16.20;74.70;;;;;;4030441;29;19987;-46
2024/03/12 07:33:39;;;;;;;;;;;16.20;74.50;;;;;;4046110;29;19934;-46
2024/03/12 07:36:21;;;;;;;;;;;16.20;74.50;;;;;;4027907;29;19975;-48
2024/03/12 07:39:08;;;;;;;;;;;16.20;74.50;;;;;;4034394;29;19935;-46
2024/03/12 07:41:49;;;;;;;;;;;16.10;74.30;;;;;;4027979;29;20401;-46
2024/03/12 07:44:32;;;;;;;;;;;16.20;75.20;;;;;;4027611;29;19935;-46
2024/03/12 07:47:13;;;;;;;;;;;16.20;74.00;;;;;;4021310;29;19961;-46
2024/03/12 07:49:55;;;;;;;;;;;16.20;73.80;;;;;;4012217;29;19931;-46
2024/03/12 07:52:36;;;;;;;;;;;16.20;73.70;;;;;;4026852;29;19950;-46
2024/03/12 07:55:17;;;;;;;;;;;16.20;73.60;;;;;;4029667;29;19934;-48
2024/03/12 07:58:00;;;;;;;;;;;16.20;73.50;;;;;;4039178;29;20497;-48
2024/03/12 08:00:41;;;;;;;;;;;16.20;73.50;;;;;;4032931;29;20047;-46
2024/03/12 08:03:22;;;;;;;;;;;16.30;73.40;;;;;;4034270;29;20272;-46
2024/03/12 08:06:05;;;;;;;;;;;16.20;73.20;;;;;;4043364;29;20018;-47
2024/03/12 08:08:46;;;;;;;;;;;16.20;73.20;;;;;;4027751;29;19946;-46
2024/03/12 08:11:30;;;;;;;;;;;16.20;73.20;;;;;;4013843;29;19930;-50
2024/03/12 08:14:10;;;;;;;;;;;16.30;73.20;;;;;;4027430;29;19931;-48
2024/03/12 08:16:52;;;;;;;;;;;16.20;73.20;;;;;;4027667;29;19930;-46
2024/03/12 08:19:33;;;;;;;;;;;16.20;74.20;;;;;;4027461;29;20339;-47
2024/03/12 08:22:16;;;;;;;;;;;16.10;73.50;;;;;;4027077;29;19930;-48
2024/03/12 08:24:57;;;;;;;;;;;16.10;73.60;;;;;;4021723;29;20038;-47
2024/03/12 08:27:39;;;;;;;;;;;16.00;73.80;;;;;;4043383;29;19930;-47
2024/03/12 08:30:20;;;;;;;;;;;15.90;74.00;;;;;;4028731;29;19935;-46
2024/03/12 08:33:03;;;;;;;;;;;16.00;74.20;;;;;;4022590;29;19962;-47
2024/03/12 08:35:44;;;;;;;;;;;16.00;74.00;;;;;;4045649;29;19931;-46
2024/03/12 08:38:28;;;;;;;;;;;16.00;73.80;;;;;;4046060;29;19946;-47
2024/03/12 08:41:10;;;;;;;;;;;16.10;73.60;;;;;;4029707;29;19935;-46
2024/03/12 08:43:50;;;;;;;;;;;16.10;73.60;;;;;;4031572;29;19930;-45
2024/03/12 08:46:32;;;;;;;;;;;16.10;73.70;;;;;;4032420;29;19974;-49
2024/03/12 08:49:13;;;;;;;;;;;16.10;73.70;;;;;;4017590;29;20355;-47
2024/03/12 08:51:55;;;;;;;;;;;16.10;73.50;;;;;;4037193;29;19931;-46
2024/03/12 08:54:38;;;;;;;;;;;16.20;73.40;;;;;;4030007;29;19964;-50
2024/03/12 08:57:18;;;;;;;;;;;16.20;73.40;;;;;;4029926;29;20388;-46
2024/03/12 09:00:00;;;;;;;;;;;16.20;73.40;;;;;;4030400;29;20078;-46
2024/03/12 09:02:41;;;;;;;;;;;16.20;73.40;;;;;;4032884;29;20295;-46
2024/03/12 09:05:22;;;;;;;;;;;16.10;73.40;;;;;;4044777;29;20308;-43
2024/03/12 09:08:04;;;;;;;;;;;16.10;73.30;;;;;;4045487;29;19959;-45
2024/03/12 09:10:47;;;;;;;;;;;16.00;74.30;;;;;;4029788;29;20226;-44
2024/03/12 09:13:28;;;;;;;;;;;16.00;73.80;;;;;;4036467;29;20135;-46
2024/03/12 09:16:12;;;;;;;;;;;16.00;73.80;;;;;;4029205;29;20063;-49
2024/03/12 09:18:53;;;;;;;;;;;16.00;73.80;;;;;;4045131;29;19950;-47
2024/03/12 09:21:34;;;;;;;;;;;16.00;73.50;;;;;;4039273;29;20363;-47
2024/03/12 09:24:18;;;;;;;;;;;16.00;73.10;;;;;;4029781;29;20005;-46
2024/03/12 09:27:01;;;;;;;;;;;16.00;72.90;;;;;;4034780;29;19928;-47
2024/03/12 09:29:43;;;;;;;;;;;16.00;72.80;;;;;;4029381;29;20030;-46
2024/03/12 09:32:24;;;;;;;;;;;16.00;72.80;;;;;;4029328;29;19978;-47
2024/03/12 09:35:05;;;;;;;;;;;16.10;72.50;;;;;;4029292;29;20285;-48
2024/03/12 09:37:47;;;;;;;;;;;16.20;72.10;;;;;;4029563;29;19930;-47
2024/03/12 09:40:28;;;;;;;;;;;16.20;71.70;;;;;;4022144;29;19931;-46
2024/03/12 09:43:11;;;;;;;;;;;16.20;71.40;;;;;;4029865;29;20297;-50
2024/03/12 09:45:52;;;;;;;;;;;16.20;71.20;;;;;;4029358;29;20342;-47
2024/03/12 09:48:34;;;;;;;;;;;16.30;71.20;;;;;;4029458;29;20014;-48
2024/03/12 09:51:14;;;;;;;;;;;16.30;70.90;;;;;;4029066;29;20305;-47
2024/03/12 09:53:55;;;;;;;;;;;16.30;70.90;;;;;;4028645;29;19934;-48
2024/03/12 09:56:38;;;;;;;;;;;16.30;70.70;;;;;;4017238;29;20002;-52
2024/03/12 09:59:20;;;;;;;;;;;16.20;70.80;;;;;;4017419;29;19935;-45
2024/03/12 10:02:03;;;;;;;;;;;16.20;70.90;;;;;;4047945;29;19946;-48
2024/03/12 10:04:48;;;;;;;;;;;16.20;71.10;;;;;;4033833;29;19933;-49
2024/03/12 10:07:29;;;;;;;;;;;16.20;70.80;;;;;;4038892;29;20082;-46
2024/03/12 10:10:10;;;;;;;;;;;16.30;70.60;;;;;;4044226;29;20067;-45
2024/03/12 10:12:51;;;;;;;;;;;16.30;70.40;;;;;;4044651;29;19934;-47
2024/03/12 10:15:36;;;;;;;;;;;16.30;70.20;;;;;;4044292;29;20481;-45
2024/03/12 10:18:18;;;;;;;;;;;16.40;70.10;;;;;;4043065;29;19930;-49
2024/03/12 10:21:00;;;;;;;;;;;16.40;69.90;;;;;;4009628;29;19935;-50
2024/03/12 10:23:43;;;;;;;;;;;16.40;70.60;;;;;;4013340;29;19935;-49
2024/03/12 10:26:29;;;;;;;;;;;16.40;69.80;;;;;;4028484;29;20380;-49
2024/03/12 10:29:10;;;;;;;;;;;16.40;70.00;;;;;;4016679;29;20424;-50
2024/03/12 10:31:54;;;;;;;;;;;16.30;70.10;;;;;;4015871;29;19935;-49
2024/03/12 10:34:35;;;;;;;;;;;16.30;70.10;;;;;;4013012;29;20302;-51
2024/03/12 10:37:26;;;;;;;;;;;16.40;70.10;;;;;;4043535;29;19934;-48
2024/03/12 10:40:13;;;;;;;;;;;16.40;70.70;;;;;;4016826;29;19931;-49
2024/03/12 10:42:57;;;;;;;;;;;16.50;69.50;;;;;;4025242;29;20003;-49
2024/03/12 10:45:39;;;;;;;;;;;16.50;69.40;;;;;;4025286;29;20374;-48
2024/03/12 10:48:22;;;;;;;;;;;16.50;69.40;;;;;;4027739;29;20364;-53
2024/03/12 10:51:03;;;;;;;;;;;16.40;69.50;;;;;;4012655;29;20023;-48
2024/03/12 10:53:46;;;;;;;;;;;16.40;69.60;;;;;;4040834;29;19931;-48
2024/03/12 10:56:27;;;;;;;;;;;16.30;69.70;;;;;;4059340;29;19930;-49
2024/03/12 10:59:09;;;;;;;;;;;16.30;69.80;;;;;;4059220;29;19973;-49
2024/03/12 11:01:50;;;;;;;;;;;16.20;69.80;;;;;;4048091;29;19931;-49
2024/03/12 11:04:35;;;;;;;;;;;16.20;69.90;;;;;;4043096;29;20090;-49
2024/03/12 11:07:16;;;;;;;;;;;16.30;70.10;;;;;;4031726;29;19934;-50
2024/03/12 11:09:59;;;;;;;;;;;16.40;69.90;;;;;;4035051;29;19935;-52
2024/03/12 11:12:42;;;;;;;;;;;16.40;69.80;;;;;;4040687;29;19930;-48
2024/03/12 11:15:24;;;;;;;;;;;16.40;69.80;;;;;;4037951;29;19938;-50
2024/03/12 11:18:06;;;;;;;;;;;16.40;69.70;;;;;;4015747;29;19934;-49
2024/03/12 11:20:48;;;;;;;;;;;16.30;69.60;;;;;;4042341;29;19938;-51
2024/03/12 11:23:29;;;;;;;;;;;16.30;69.60;;;;;;4040827;29;19930;-49
2024/03/12 11:26:10;;;;;;;;;;;16.20;69.60;;;;;;4031132;29;19942;-50
2024/03/12 11:28:51;;;;;;;;;;;16.20;69.70;;;;;;4042385;29;19982;-49
2024/03/12 11:31:35;;;;;;;;;;;16.10;69.80;;;;;;4038969;29;19930;-51
2024/03/12 11:34:31;;;;;;;;;;;16.10;70.30;;;;;;4051579;29;20391;-50
2024/03/12 11:37:17;;;;;;;;;;;16.00;70.50;;;;;;4026669;29;19930;-52
2024/03/12 11:40:16;;;;;;;;;;;16.00;70.20;;;;;;4028087;29;19930;-49
2024/03/12 11:42:57;;;;;;;;;;;16.00;70.00;;;;;;4038640;29;19930;-50
2024/03/12 11:45:40;;;;;;;;;;;16.00;69.70;;;;;;4022956;29;19930;-51
2024/03/12 11:48:22;;;;;;;;;;;15.90;69.70;;;;;;4013284;29;19935;-50
2024/03/12 11:51:04;;;;;;;;;;;15.90;69.60;;;;;;4027452;29;19935;-46
2024/03/12 11:53:47;;;;;;;;;;;15.90;69.70;;;;;;4039968;29;19931;-48
2024/03/12 11:56:28;;;;;;;;;;;15.80;69.50;;;;;;4032743;29;19934;-48
2024/03/12 11:59:08;;;;;;;;;;;15.80;69.50;;;;;;4027328;29;19930;-49
2024/03/12 12:01:55;;;;;;;;;;;15.70;70.30;;;;;;4036544;29;20392;-49
2024/03/12 12:04:36;;;;;;;;;;;15.70;69.60;;;;;;4017284;29;20296;-48
2024/03/12 12:07:17;;;;;;;;;;;15.70;69.70;;;;;;4025507;29;19934;-51
2024/03/12 12:10:00;;;;;;;;;;;15.60;69.80;;;;;;4013739;29;19935;-53
2024/03/12 12:12:41;;;;;;;;;;;15.60;70.00;;;;;;4021057;29;19931;-50
2024/03/12 12:15:22;;;;;;;;;;;15.50;70.40;;;;;;4032524;29;19934;-48
2024/03/12 12:18:07;;;;;;;;;;;15.50;71.00;;;;;;4025178;29;20491;-50
2024/03/12 12:20:48;;;;;;;;;;;15.40;71.70;;;;;;4029751;29;19935;-45
2024/03/12 12:23:29;;;;;;;;;;;15.40;72.20;;;;;;4013984;29;19934;-45
2024/03/12 12:26:13;;;;;;;;;;;15.50;72.80;;;;;;4016999;29;20080;-45
2024/03/12 12:28:54;;;;;;;;;;;15.50;73.40;;;;;;4023984;29;20564;-48
2024/03/12 12:31:36;;;;;;;;;;;15.50;73.90;;;;;;4027876;29;19931;-46
2024/03/12 12:34:17;;;;;;;;;;;15.50;74.00;;;;;;4030167;29;19934;-50
2024/03/12 12:36:59;;;;;;;;;;;15.50;75.50;;;;;;4033531;29;19934;-44
2024/03/12 12:39:40;;;;;;;;;;;15.50;75.10;;;;;;4012492;29;20403;-48
2024/03/12 12:42:29;;;;;;;;;;;15.50;75.30;;;;;;4011986;29;20399;-46
2024/03/12 12:45:10;;;;;;;;;;;15.50;75.40;;;;;;4020262;29;19930;-46
2024/03/12 12:47:52;;;;;;;;;;;15.50;75.60;;;;;;4027374;29;19930;-44
2024/03/12 12:50:33;;;;;;;;;;;15.50;76.00;;;;;;4027410;29;20297;-47
2024/03/12 12:53:14;;;;;;;;;;;15.60;76.20;;;;;;4025634;29;19947;-48
2024/03/12 12:55:55;;;;;;;;;;;15.60;75.90;;;;;;4011950;29;19956;-48
2024/03/12 12:58:41;;;;;;;;;;;15.70;75.90;;;;;;4024168;29;20337;-48
2024/03/12 13:01:25;;;;;;;;;;;15.70;75.90;;;;;;4024013;29;19931;-47
2024/03/12 13:04:18;;;;;;;;;;;15.80;75.90;;;;;;4023807;29;19931;-46
2024/03/12 13:07:00;;;;;;;;;;;15.80;76.80;;;;;;4018858;29;20429;-49
2024/03/12 13:09:41;;;;;;;;;;;15.80;75.90;;;;;;4013322;29;20069;-49
2024/03/12 13:12:22;;;;;;;;;;;15.80;76.80;;;;;;4013818;29;20000;-49
2024/03/12 13:15:04;;;;;;;;;;;15.90;75.90;;;;;;4025589;29;19935;-47
2024/03/12 13:17:45;;;;;;;;;;;16.00;75.70;;;;;;4013807;29;19992;-47
2024/03/12 13:20:26;;;;;;;;;;;16.00;75.50;;;;;;4014775;29;19931;-50
2024/03/12 13:23:08;;;;;;;;;;;16.10;75.40;;;;;;4018880;29;19934;-44
2024/03/12 13:25:49;;;;;;;;;;;16.10;75.40;;;;;;4032409;29;19930;-43
2024/03/12 13:28:30;;;;;;;;;;;16.10;75.50;;;;;;4017715;29;20437;-44
2024/03/12 13:31:15;;;;;;;;;;;16.10;75.70;;;;;;4037624;29;19931;-44
2024/03/12 13:33:56;;;;;;;;;;;16.10;76.40;;;;;;4021484;29;19935;-46
2024/03/12 13:36:36;;;;;;;;;;;16.20;75.30;;;;;;4017795;29;19930;-42
2024/03/12 13:39:19;;;;;;;;;;;16.30;75.20;;;;;;4038389;29;19995;-44
2024/03/12 13:42:00;;;;;;;;;;;16.40;75.30;;;;;;4014117;29;19935;-43
2024/03/12 13:44:41;;;;;;;;;;;16.40;75.10;;;;;;4028949;29;19931;-40
2024/03/12 13:47:23;;;;;;;;;;;16.50;75.00;;;;;;4029722;29;19982;-44
2024/03/12 13:50:07;;;;;;;;;;;16.50;74.90;;;;;;4034032;29;20118;-43
2024/03/12 13:52:48;;;;;;;;;;;16.60;75.30;;;;;;4015505;29;19935;-43
2024/03/12 13:55:28;;;;;;;;;;;16.50;75.20;;;;;;4013856;29;19947;-43
2024/03/12 13:58:09;;;;;;;;;;;16.50;75.30;;;;;;4026155;29;19934;-45
2024/03/12 14:00:51;;;;;;;;;;;16.60;75.30;;;;;;4029041;29;20068;-43
2024/03/12 14:03:33;;;;;;;;;;;16.60;75.00;;;;;;4028554;29;19995;-44
2024/03/12 14:06:14;;;;;;;;;;;16.70;74.80;;;;;;4035816;29;20010;-43
2024/03/12 14:08:55;;;;;;;;;;;16.70;74.50;;;;;;4028908;29;19930;-43
2024/03/12 14:11:36;;;;;;;;;;;16.60;74.40;;;;;;4026738;29;20285;-43
2024/03/12 14:14:17;;;;;;;;;;;16.60;74.30;;;;;;4028255;29;20014;-43
2024/03/12 14:16:58;;;;;;;;;;;16.60;75.30;;;;;;4035754;29;19983;-43
2024/03/12 14:19:41;;;;;;;;;;;16.50;74.50;;;;;;4028939;29;20046;-41
2024/03/12 14:22:22;;;;;;;;;;;16.50;74.70;;;;;;4029441;29;20297;-43
2024/03/12 14:25:05;;;;;;;;;;;16.40;74.80;;;;;;4030222;29;20391;-43
2024/03/12 14:27:46;;;;;;;;;;;16.40;75.00;;;;;;4040697;29;19934;-43
2024/03/12 14:30:27;;;;;;;;;;;16.30;75.00;;;;;;4037691;29;19931;-43
2024/03/12 14:33:08;;;;;;;;;;;16.20;75.30;;;;;;4041314;29;19934;-43
2024/03/12 14:35:51;;;;;;;;;;;16.20;75.40;;;;;;4040612;29;19931;-43
2024/03/12 14:38:32;;;;;;;;;;;16.10;75.60;;;;;;4042412;29;20284;-44
2024/03/12 14:41:13;;;;;;;;;;;16.10;75.80;;;;;;4038007;29;19983;-43
2024/03/12 14:43:54;;;;;;;;;;;16.00;75.90;;;;;;4028226;29;20013;-48
2024/03/12 14:46:35;;;;;;;;;;;16.00;76.20;;;;;;4001558;29;19931;-48
2024/03/12 14:49:16;;;;;;;;;;;15.90;76.30;;;;;;4027405;29;20349;-44
2024/03/12 14:51:58;;;;;;;;;;;15.90;76.50;;;;;;4031441;29;19936;-45
2024/03/12 14:54:39;;;;;;;;;;;15.80;76.50;;;;;;4042739;29;19930;-44
2024/03/12 14:57:21;;;;;;;;;;;15.80;77.30;;;;;;4035475;29;19930;-43
2024/03/12 15:00:06;;;;;;;;;;;15.80;76.80;;;;;;4026994;29;19930;-44
2024/03/12 15:02:47;;;;;;;;;;;15.80;76.90;;;;;;4043264;29;20364;-43
2024/03/12 15:05:27;;;;;;;;;;;15.70;77.00;;;;;;4038498;29;19938;-43
2024/03/12 15:08:10;;;;;;;;;;;15.70;77.20;;;;;;4029244;29;20118;-48
2024/03/12 15:10:51;;;;;;;;;;;15.70;77.30;;;;;;4020540;29;20048;-49
2024/03/12 15:13:33;;;;;;;;;;;15.60;77.20;;;;;;4012980;29;19935;-49
2024/03/12 15:16:14;;;;;;;;;;;15.60;77.30;;;;;;4027845;29;19930;-49
2024/03/12 15:18:55;;;;;;;;;;;15.60;77.60;;;;;;4026674;29;19962;-49
2024/03/12 15:21:37;;;;;;;;;;;15.60;77.10;;;;;;4027950;29;20304;-52
2024/03/12 15:24:19;;;;;;;;;;;15.70;76.50;;;;;;4035421;29;19978;-50
2024/03/12 15:27:01;;;;;;;;;;;15.70;76.60;;;;;;4029271;29;19991;-49
2024/03/12 15:29:43;;;;;;;;;;;15.70;76.60;;;;;;4027846;29;20498;-54
2024/03/12 15:32:24;;;;;;;;;;;15.70;76.60;;;;;;4026828;29;19934;-50
2024/03/12 15:35:08;;;;;;;;;;;15.70;77.50;;;;;;4034797;29;19931;-51
2024/03/12 15:37:49;;;;;;;;;;;15.80;76.80;;;;;;4027424;29;19931;-48
2024/03/12 15:40:31;;;;;;;;;;;15.80;76.90;;;;;;4026930;29;20011;-45
2024/03/12 15:43:12;;;;;;;;;;;15.80;76.90;;;;;;4013961;29;19984;-43
2024/03/12 15:45:53;;;;;;;;;;;15.90;76.60;;;;;;4012493;29;19935;-45
2024/03/12 15:48:34;;;;;;;;;;;16.00;76.40;;;;;;4012376;29;19935;-43
2024/03/12 15:51:14;;;;;;;;;;;16.10;76.10;;;;;;4015756;29;19947;-44